Etusivu
METAR-TAF:

METAR-TAF

Lentoasemat :

Bobby L. Chain Municipal Airport

Hattiesburg, Mississippi, Yhdysvallat

Leveyspiiri: 31-15-54N, Pituuspiiri: 089-15-11W, korkeus merenpinnasta: 46 m

Tämänhetkinen sää

Tämä raportti tehtiin 48 minuuttia sitten, kello 18.53 UTC
Tuuli 11 kn pohjoisesta puuskistuen 18 kn:hen
Lämpötila 6°C
Kosteus 52%
Ilmanpaine 1026 hPa
Näkyvyys: 16.1 km
selkeää

METAR: KHBG 121853Z AUTO 35011G18KT 10SM CLR 06/M03 A3030 RMK AO2 SLP260 T00561033

Aika: 13:41 (19:41 UTC)

Sääennuste

Tämä raportti tehtiin 2 tuntia ja 21 minuuttia sitten, kello 17.20 UTC
Ennuste voimassa 12. päivästä klo 18 UTC - 13. päivään klo 18 UTC
Tuuli 14 kn pohjoisesta puuskistuen 22 kn:hen
Näkyvyys: 10 km
Hajanaisia pilviä 2000 ft:n korkeudessa
From 13. päivästä klo 0000 UTC
Tuuli 7 kn pohjoisesta
Näkyvyys: 10 km
selkeää

TAF: KHBG 121720Z 1218/1318 36014G22KT P6SM SCT020 FM130000 35007KT P6SM SKC

Säähavainnot ja -ennusteet yli 4000 lentoasemalta (METAR- ja TAF-raportit).

Käytössä olevat sääasemat on merkitty karttaan keltaisilla ja punaisilla pisteillä.

Aseta hiiri pisteen päälle nähdäksesi sääaseman nimen.

Klikkaa sitten nähdäksesi säähavainnot ja -ennusteet.

Kartan vaihtaminen: klikkaa mustalla rastilla varustettuja vihreitä pisteitä, niin voit zoomata sisään; viivalla varustettua vihreää pistettä, niin voit zoomata ulos tai vihreitä nuolia, niin pääset viereisille kartoille.


METAR-TAF: